createdAt,value
2022-10-17T00:00:24.674Z,13.50
2022-10-17T00:05:21.036Z,13.52
2022-10-17T00:10:17.536Z,13.57
2022-10-17T00:15:19.428Z,13.61
2022-10-17T00:20:15.990Z,13.57
2022-10-17T00:25:12.616Z,13.62
2022-10-17T00:30:13.122Z,13.59
2022-10-17T00:35:09.988Z,13.57
2022-10-17T00:40:07.211Z,13.63
2022-10-17T00:45:13.533Z,13.68
2022-10-17T00:50:11.804Z,13.62
2022-10-17T00:55:18.504Z,13.57
2022-10-17T01:00:16.770Z,13.56
2022-10-17T01:05:14.054Z,13.56
2022-10-17T01:10:11.317Z,13.54
2022-10-17T01:15:21.381Z,13.48
2022-10-17T01:20:32.902Z,13.51
2022-10-17T01:25:44.976Z,13.48
2022-10-17T01:30:59.434Z,13.41
2022-10-17T01:36:07.213Z,13.46
2022-10-17T01:41:11.094Z,13.44
2022-10-17T01:46:18.447Z,13.43
2022-10-17T01:51:26.499Z,13.46
2022-10-17T01:56:25.293Z,13.44
2022-10-17T02:01:22.973Z,13.49
2022-10-17T02:06:19.524Z,13.48
2022-10-17T02:11:26.262Z,13.46
2022-10-17T02:16:40.561Z,13.48
2022-10-17T02:21:51.964Z,13.49
2022-10-17T02:26:53.605Z,13.43
2022-10-17T02:31:56.072Z,13.46
2022-10-17T02:36:56.160Z,13.49
2022-10-17T02:41:54.997Z,13.48
2022-10-17T02:47:26.798Z,13.53
2022-10-17T02:52:48.143Z,13.50
2022-10-17T02:57:50.359Z,13.58
2022-10-17T03:02:51.617Z,13.62
2022-10-17T03:07:48.244Z,13.70
2022-10-17T03:12:44.642Z,13.71
2022-10-17T03:17:41.169Z,13.61
2022-10-17T03:22:37.644Z,13.68
2022-10-17T03:27:34.074Z,13.62
2022-10-17T03:32:33.678Z,13.64
2022-10-17T03:37:30.336Z,13.52
2022-10-17T03:42:26.923Z,13.44
2022-10-17T03:47:23.323Z,13.44
2022-10-17T03:52:19.914Z,13.37
2022-10-17T03:57:16.561Z,13.39
2022-10-17T04:02:12.973Z,13.40
2022-10-17T04:07:09.393Z,13.37
2022-10-17T04:12:05.825Z,13.34
2022-10-17T04:17:02.234Z,13.29
2022-10-17T04:21:58.660Z,13.21
2022-10-17T04:26:55.565Z,13.25
2022-10-17T04:31:52.354Z,13.39
2022-10-17T04:36:48.813Z,13.35
2022-10-17T04:41:45.468Z,13.45
2022-10-17T04:46:41.947Z,13.42
2022-10-17T04:51:38.646Z,13.37
2022-10-17T04:56:35.108Z,13.32
2022-10-17T05:01:31.482Z,13.34
2022-10-17T05:06:28.309Z,13.32
2022-10-17T05:11:27.657Z,13.31
2022-10-17T05:16:25.279Z,13.42
2022-10-17T05:21:24.355Z,13.43
2022-10-17T05:26:21.818Z,13.43
2022-10-17T05:31:18.849Z,13.47
2022-10-17T05:36:16.177Z,13.51
2022-10-17T05:41:12.571Z,13.60
2022-10-17T05:46:09.754Z,13.69
2022-10-17T05:51:09.229Z,13.64
2022-10-17T05:56:08.045Z,13.70
2022-10-17T06:01:08.220Z,13.77
2022-10-17T06:06:12.046Z,13.76
2022-10-17T06:11:10.262Z,13.78
2022-10-17T06:16:07.661Z,13.96
2022-10-17T06:21:10.034Z,13.95
2022-10-17T06:26:07.572Z,13.99
2022-10-17T06:31:06.213Z,14.02
2022-10-17T06:36:03.894Z,14.05
2022-10-17T06:41:13.709Z,14.24
2022-10-17T06:46:10.105Z,14.45
2022-10-17T06:51:07.304Z,14.59
2022-10-17T06:56:05.588Z,14.77
2022-10-17T07:01:04.736Z,15.01
2022-10-17T07:06:01.309Z,15.13
2022-10-17T07:10:57.915Z,15.18
2022-10-17T07:20:55.194Z,15.33
2022-10-17T07:25:51.613Z,15.42
2022-10-17T07:30:51.979Z,15.57
2022-10-17T07:35:52.794Z,15.74
2022-10-17T07:40:57.712Z,15.85
2022-10-17T07:45:54.569Z,15.95
2022-10-17T07:50:51.277Z,16.14
2022-10-17T07:55:49.482Z,16.34
2022-10-17T08:00:48.430Z,16.45
2022-10-17T08:05:45.080Z,16.58
2022-10-17T08:10:41.587Z,16.74
2022-10-17T08:15:39.053Z,16.78
2022-10-17T08:20:35.441Z,16.87
2022-10-17T08:25:31.966Z,16.93
2022-10-17T08:30:30.689Z,17.05
2022-10-17T08:35:27.137Z,17.13
2022-10-17T08:40:29.190Z,17.23
2022-10-17T08:45:56.274Z,17.48
2022-10-17T08:50:57.940Z,17.88
2022-10-17T08:55:55.213Z,18.19
2022-10-17T09:01:03.850Z,18.36
2022-10-17T09:06:19.134Z,18.35
2022-10-17T09:11:34.106Z,18.38
2022-10-17T09:16:56.806Z,18.70
2022-10-17T09:22:25.166Z,19.10
2022-10-17T09:27:35.502Z,19.48
2022-10-17T09:32:32.377Z,19.86
2022-10-17T09:37:32.679Z,20.05
2022-10-17T09:42:29.307Z,20.35
2022-10-17T09:47:39.145Z,20.64
2022-10-17T09:52:42.262Z,20.74
2022-10-17T09:57:54.984Z,20.95
2022-10-17T10:02:51.590Z,21.06
2022-10-17T10:08:03.454Z,20.95
2022-10-17T10:13:06.917Z,20.95
2022-10-17T10:18:12.430Z,21.11
2022-10-17T10:23:15.926Z,21.18
2022-10-17T10:28:12.427Z,21.54
2022-10-17T10:33:11.543Z,21.81
2022-10-17T10:38:17.446Z,21.58
2022-10-17T10:43:24.437Z,22.00
2022-10-17T10:48:37.500Z,22.14
2022-10-17T10:53:45.595Z,21.86
2022-10-17T10:59:06.457Z,21.42
2022-10-17T11:04:41.626Z,21.58
2022-10-17T11:09:49.076Z,21.04
2022-10-17T11:14:56.753Z,21.09
2022-10-17T11:20:37.757Z,20.93
2022-10-17T11:25:36.812Z,20.66
2022-10-17T11:30:46.181Z,20.70
2022-10-17T11:35:46.075Z,20.68
2022-10-17T11:40:48.556Z,20.67
2022-10-17T11:45:50.505Z,20.65
2022-10-17T11:56:29.711Z,20.75
2022-10-17T12:01:38.094Z,20.63
2022-10-17T12:07:01.102Z,20.52
2022-10-17T12:11:59.754Z,20.39
2022-10-17T12:16:56.154Z,20.35
2022-10-17T12:22:01.504Z,20.36
2022-10-17T12:26:58.274Z,20.33
2022-10-17T12:31:54.690Z,20.35
2022-10-17T12:36:51.129Z,20.33
2022-10-17T12:41:47.460Z,20.18
2022-10-17T12:46:50.875Z,20.14
2022-10-17T12:52:10.966Z,20.21
2022-10-17T12:57:35.976Z,20.27
2022-10-17T13:02:33.365Z,20.22
2022-10-17T13:07:30.128Z,20.27
2022-10-17T13:12:28.311Z,20.33
2022-10-17T13:17:28.241Z,20.44
2022-10-17T13:22:27.597Z,20.33
2022-10-17T13:27:34.907Z,20.18
2022-10-17T13:32:39.710Z,20.25
2022-10-17T13:37:37.013Z,20.32
2022-10-17T13:42:41.198Z,20.17
2022-10-17T13:47:39.410Z,20.20
2022-10-17T13:52:36.162Z,20.19
2022-10-17T13:57:32.962Z,20.03
2022-10-17T14:02:31.714Z,19.88
2022-10-17T14:08:05.853Z,19.91
2022-10-17T14:12:55.761Z,19.92
2022-10-17T14:18:00.267Z,19.77
2022-10-17T14:28:18.313Z,19.66
2022-10-17T14:33:26.215Z,19.55
2022-10-17T14:38:23.540Z,19.47
2022-10-17T14:43:23.719Z,19.44
2022-10-17T14:48:23.249Z,19.41
2022-10-17T14:53:22.667Z,19.36
2022-10-17T14:58:27.652Z,19.31
2022-10-17T15:03:24.799Z,19.30
2022-10-17T15:08:23.752Z,19.36
2022-10-17T15:13:29.073Z,19.33
2022-10-17T15:18:26.753Z,19.27
2022-10-17T15:23:23.114Z,19.27
2022-10-17T15:28:19.500Z,19.28
2022-10-17T15:33:15.828Z,19.32
2022-10-17T15:38:17.820Z,19.31
2022-10-17T15:43:17.435Z,19.23
2022-10-17T15:48:23.096Z,19.24
2022-10-17T15:53:19.556Z,19.21
2022-10-17T15:58:17.122Z,19.27
2022-10-17T16:03:14.271Z,19.21
2022-10-17T16:08:10.693Z,19.10
2022-10-17T16:13:19.697Z,19.02
2022-10-17T16:18:16.157Z,18.93
2022-10-17T16:23:13.609Z,18.81
2022-10-17T16:28:11.910Z,18.71
2022-10-17T16:33:10.309Z,18.65
2022-10-17T16:38:07.927Z,18.49
2022-10-17T16:43:04.281Z,18.13
2022-10-17T16:48:00.625Z,17.85
2022-10-17T16:52:56.960Z,17.64
2022-10-17T16:57:53.329Z,17.54
2022-10-17T17:02:49.706Z,17.42
2022-10-17T17:07:47.851Z,17.35
2022-10-17T17:12:44.316Z,17.25
2022-10-17T17:17:56.301Z,17.18
2022-10-17T17:22:53.286Z,17.10
2022-10-17T17:27:49.637Z,17.02
2022-10-17T17:32:46.561Z,16.97
2022-10-17T17:37:42.902Z,16.89
2022-10-17T17:42:39.301Z,16.80
2022-10-17T17:47:35.660Z,16.88
2022-10-17T17:52:32.146Z,16.88
2022-10-17T17:57:30.127Z,16.77
2022-10-17T18:02:26.483Z,16.68
2022-10-17T18:07:24.071Z,16.69
2022-10-17T18:12:20.428Z,16.62
2022-10-17T18:17:16.767Z,16.61
2022-10-17T18:22:13.091Z,16.61
2022-10-17T18:27:09.571Z,16.34
2022-10-17T18:32:05.946Z,16.31
2022-10-17T18:37:02.600Z,16.27
2022-10-17T18:41:59.106Z,16.22
2022-10-17T18:46:58.510Z,16.25
2022-10-17T18:51:59.439Z,16.17
2022-10-17T18:56:56.434Z,16.21
2022-10-17T19:01:52.936Z,16.35
2022-10-17T19:06:49.354Z,16.31
2022-10-17T19:11:45.849Z,16.17
2022-10-17T19:16:47.161Z,16.18
2022-10-17T19:21:43.984Z,16.20
2022-10-17T19:26:41.294Z,16.28
2022-10-17T19:31:37.854Z,16.18
2022-10-17T19:36:35.740Z,16.14
2022-10-17T19:41:32.262Z,16.11
2022-10-17T19:46:30.389Z,16.17
2022-10-17T19:51:28.504Z,16.23
2022-10-17T19:56:25.066Z,16.24
2022-10-17T20:01:25.219Z,16.14
2022-10-17T20:06:22.472Z,16.04
2022-10-17T20:11:21.381Z,15.96
2022-10-17T20:16:23.298Z,15.93
2022-10-17T20:21:35.626Z,15.87
2022-10-17T20:26:38.297Z,15.83
2022-10-17T20:31:36.295Z,15.79
2022-10-17T20:36:36.670Z,15.76
2022-10-17T20:41:34.045Z,15.73
2022-10-17T20:46:36.929Z,15.68
2022-10-17T20:51:34.901Z,15.67
2022-10-17T20:56:32.727Z,15.64
2022-10-17T21:01:30.821Z,15.74
2022-10-17T21:06:27.706Z,15.62
2022-10-17T21:11:26.893Z,15.72
2022-10-17T21:16:24.001Z,15.69
2022-10-17T21:21:29.550Z,15.72
2022-10-17T21:26:26.927Z,15.69
2022-10-17T21:31:25.636Z,15.64
2022-10-17T21:36:23.929Z,15.61
2022-10-17T21:41:23.133Z,15.56
2022-10-17T21:46:20.499Z,15.51
2022-10-17T21:51:19.008Z,15.50
2022-10-17T21:56:18.522Z,15.43
2022-10-17T22:01:17.890Z,15.41
2022-10-17T22:11:35.470Z,15.39
2022-10-17T22:16:32.510Z,15.49
2022-10-17T22:21:29.296Z,15.43
2022-10-17T22:26:27.505Z,15.37
2022-10-17T22:31:24.681Z,15.30
2022-10-17T22:36:21.240Z,15.42
2022-10-17T22:41:17.887Z,15.42
2022-10-17T22:46:16.643Z,15.33
2022-10-17T22:51:13.285Z,15.26
2022-10-17T22:56:12.950Z,15.25
2022-10-17T23:01:14.528Z,15.27
2022-10-17T23:06:11.037Z,15.31
2022-10-17T23:11:08.376Z,15.35
2022-10-17T23:16:05.270Z,15.41
2022-10-17T23:21:01.878Z,15.38
2022-10-17T23:26:11.125Z,15.31
2022-10-17T23:31:13.252Z,15.22
2022-10-17T23:36:14.033Z,15.14
2022-10-17T23:41:11.210Z,15.15
2022-10-17T23:46:08.210Z,15.18
2022-10-17T23:51:04.665Z,15.15
2022-10-17T23:56:01.017Z,15.15
